sensor_id;sensor_type;location;lat;lon;timestamp;temperature;humidity
7192;DHT22;3637;51.494;11.958;2023-03-03T00:00:10;1.50;99.90
7192;DHT22;3637;51.494;11.958;2023-03-03T00:03:16;0.70;99.90
7192;DHT22;3637;51.494;11.958;2023-03-03T00:06:18;1.40;99.90
7192;DHT22;3637;51.494;11.958;2023-03-03T00:09:22;0.70;99.90
7192;DHT22;3637;51.494;11.958;2023-03-03T00:12:26;0.90;99.90
7192;DHT22;3637;51.494;11.958;2023-03-03T00:15:29;2.20;99.90
7192;DHT22;3637;51.494;11.958;2023-03-03T00:18:35;1.60;99.90
7192;DHT22;3637;51.494;11.958;2023-03-03T00:21:40;1.10;99.90
7192;DHT22;3637;51.494;11.958;2023-03-03T00:24:44;1.10;99.90
7192;DHT22;3637;51.494;11.958;2023-03-03T00:27:46;1.00;99.90
7192;DHT22;3637;51.494;11.958;2023-03-03T00:30:49;0.90;99.90
7192;DHT22;3637;51.494;11.958;2023-03-03T00:33:54;1.00;99.90
7192;DHT22;3637;51.494;11.958;2023-03-03T00:36:57;1.00;99.90
7192;DHT22;3637;51.494;11.958;2023-03-03T00:40:23;1.20;99.90
7192;DHT22;3637;51.494;11.958;2023-03-03T00:43:32;1.20;99.90
7192;DHT22;3637;51.494;11.958;2023-03-03T00:46:36;1.30;99.90
7192;DHT22;3637;51.494;11.958;2023-03-03T00:49:38;2.20;99.90
7192;DHT22;3637;51.494;11.958;2023-03-03T00:52:45;1.70;99.90
7192;DHT22;3637;51.494;11.958;2023-03-03T00:55:54;1.50;99.90
7192;DHT22;3637;51.494;11.958;2023-03-03T00:58:56;1.30;99.90
7192;DHT22;3637;51.494;11.958;2023-03-03T01:01:58;1.70;99.90
7192;DHT22;3637;51.494;11.958;2023-03-03T01:05:00;1.20;99.90
7192;DHT22;3637;51.494;11.958;2023-03-03T01:08:02;1.40;99.90
7192;DHT22;3637;51.494;11.958;2023-03-03T01:11:09;1.90;99.90
7192;DHT22;3637;51.494;11.958;2023-03-03T01:14:12;1.10;99.90
7192;DHT22;3637;51.494;11.958;2023-03-03T01:17:14;1.10;99.90
7192;DHT22;3637;51.494;11.958;2023-03-03T01:20:17;1.20;99.90
7192;DHT22;3637;51.494;11.958;2023-03-03T01:23:19;1.20;99.90
7192;DHT22;3637;51.494;11.958;2023-03-03T01:26:22;1.40;99.90
7192;DHT22;3637;51.494;11.958;2023-03-03T01:29:24;2.10;99.90
7192;DHT22;3637;51.494;11.958;2023-03-03T01:32:27;1.30;99.90
7192;DHT22;3637;51.494;11.958;2023-03-03T01:35:29;1.30;99.90
7192;DHT22;3637;51.494;11.958;2023-03-03T01:38:32;1.60;99.90
7192;DHT22;3637;51.494;11.958;2023-03-03T01:41:37;1.30;99.90
7192;DHT22;3637;51.494;11.958;2023-03-03T01:44:39;1.60;99.90
7192;DHT22;3637;51.494;11.958;2023-03-03T01:47:47;1.80;99.90
7192;DHT22;3637;51.494;11.958;2023-03-03T01:50:55;0.80;99.90
7192;DHT22;3637;51.494;11.958;2023-03-03T01:54:00;0.50;99.90
7192;DHT22;3637;51.494;11.958;2023-03-03T01:57:07;0.50;99.90
7192;DHT22;3637;51.494;11.958;2023-03-03T02:00:11;0.70;99.90
7192;DHT22;3637;51.494;11.958;2023-03-03T02:03:14;0.70;99.90
7192;DHT22;3637;51.494;11.958;2023-03-03T02:06:17;0.90;99.90
7192;DHT22;3637;51.494;11.958;2023-03-03T02:09:25;0.80;99.90
7192;DHT22;3637;51.494;11.958;2023-03-03T02:12:35;0.80;99.90
7192;DHT22;3637;51.494;11.958;2023-03-03T02:15:38;0.90;99.90
7192;DHT22;3637;51.494;11.958;2023-03-03T02:18:40;1.50;99.90
7192;DHT22;3637;51.494;11.958;2023-03-03T02:21:42;2.20;99.90
7192;DHT22;3637;51.494;11.958;2023-03-03T02:24:47;1.30;99.90
7192;DHT22;3637;51.494;11.958;2023-03-03T02:27:52;1.20;99.90
7192;DHT22;3637;51.494;11.958;2023-03-03T02:30:57;1.30;99.90
7192;DHT22;3637;51.494;11.958;2023-03-03T02:33:59;1.30;99.90
7192;DHT22;3637;51.494;11.958;2023-03-03T02:37:02;1.80;99.90
7192;DHT22;3637;51.494;11.958;2023-03-03T02:40:06;2.10;99.90
7192;DHT22;3637;51.494;11.958;2023-03-03T02:43:11;1.30;99.90
7192;DHT22;3637;51.494;11.958;2023-03-03T02:46:13;1.30;99.90
7192;DHT22;3637;51.494;11.958;2023-03-03T02:49:16;1.30;99.90
7192;DHT22;3637;51.494;11.958;2023-03-03T02:52:18;0.90;99.90
7192;DHT22;3637;51.494;11.958;2023-03-03T02:55:20;0.90;99.90
7192;DHT22;3637;51.494;11.958;2023-03-03T02:58:23;0.30;99.90
7192;DHT22;3637;51.494;11.958;2023-03-03T03:01:25;1.30;99.90
7192;DHT22;3637;51.494;11.958;2023-03-03T03:04:27;0.70;99.90
7192;DHT22;3637;51.494;11.958;2023-03-03T03:07:29;1.10;99.90
7192;DHT22;3637;51.494;11.958;2023-03-03T03:10:31;0.60;99.90
7192;DHT22;3637;51.494;11.958;2023-03-03T03:13:34;1.20;99.90
7192;DHT22;3637;51.494;11.958;2023-03-03T03:16:36;0.50;99.90
7192;DHT22;3637;51.494;11.958;2023-03-03T03:19:38;0.50;99.90
7192;DHT22;3637;51.494;11.958;2023-03-03T03:22:40;0.40;99.90
7192;DHT22;3637;51.494;11.958;2023-03-03T03:25:42;0.40;99.90
7192;DHT22;3637;51.494;11.958;2023-03-03T03:28:47;1.50;99.90
7192;DHT22;3637;51.494;11.958;2023-03-03T03:31:49;1.20;99.90
7192;DHT22;3637;51.494;11.958;2023-03-03T03:34:51;0.40;99.90
7192;DHT22;3637;51.494;11.958;2023-03-03T03:37:53;0.40;99.90
7192;DHT22;3637;51.494;11.958;2023-03-03T03:40:55;0.50;99.90
7192;DHT22;3637;51.494;11.958;2023-03-03T03:43:58;0.60;99.90
7192;DHT22;3637;51.494;11.958;2023-03-03T03:47:00;0.70;99.90
7192;DHT22;3637;51.494;11.958;2023-03-03T03:50:02;0.70;99.90
7192;DHT22;3637;51.494;11.958;2023-03-03T03:53:05;1.00;99.90
7192;DHT22;3637;51.494;11.958;2023-03-03T03:56:07;0.60;99.90
7192;DHT22;3637;51.494;11.958;2023-03-03T03:59:10;0.40;99.90
7192;DHT22;3637;51.494;11.958;2023-03-03T04:02:12;0.30;99.90
7192;DHT22;3637;51.494;11.958;2023-03-03T04:05:14;0.30;99.90
7192;DHT22;3637;51.494;11.958;2023-03-03T04:08:16;0.20;99.90
7192;DHT22;3637;51.494;11.958;2023-03-03T04:11:18;0.40;99.90
7192;DHT22;3637;51.494;11.958;2023-03-03T04:14:21;0.50;99.90
7192;DHT22;3637;51.494;11.958;2023-03-03T04:17:23;0.50;99.90
7192;DHT22;3637;51.494;11.958;2023-03-03T04:20:25;-0.10;99.90
7192;DHT22;3637;51.494;11.958;2023-03-03T04:23:27;0.30;99.90
7192;DHT22;3637;51.494;11.958;2023-03-03T04:26:28;0.60;99.90
7192;DHT22;3637;51.494;11.958;2023-03-03T04:29:33;1.60;99.90
7192;DHT22;3637;51.494;11.958;2023-03-03T04:32:34;0.40;99.90
7192;DHT22;3637;51.494;11.958;2023-03-03T04:35:36;0.40;99.90
7192;DHT22;3637;51.494;11.958;2023-03-03T04:38:38;0.30;99.90
7192;DHT22;3637;51.494;11.958;2023-03-03T04:41:40;0.20;99.90
7192;DHT22;3637;51.494;11.958;2023-03-03T04:44:43;0.30;99.90
7192;DHT22;3637;51.494;11.958;2023-03-03T04:47:45;0.30;99.90
7192;DHT22;3637;51.494;11.958;2023-03-03T04:50:47;0.30;99.90
7192;DHT22;3637;51.494;11.958;2023-03-03T04:53:52;0.40;99.90
7192;DHT22;3637;51.494;11.958;2023-03-03T04:56:54;0.30;99.90
7192;DHT22;3637;51.494;11.958;2023-03-03T04:59:57;0.20;99.90
7192;DHT22;3637;51.494;11.958;2023-03-03T05:02:59;0.10;99.90
7192;DHT22;3637;51.494;11.958;2023-03-03T05:06:01;0.20;99.90
7192;DHT22;3637;51.494;11.958;2023-03-03T05:09:03;0.70;99.90
7192;DHT22;3637;51.494;11.958;2023-03-03T05:12:05;0.50;99.90
7192;DHT22;3637;51.494;11.958;2023-03-03T05:15:09;0.60;99.90
7192;DHT22;3637;51.494;11.958;2023-03-03T05:18:11;0.60;99.90
7192;DHT22;3637;51.494;11.958;2023-03-03T05:21:13;0.70;99.90
7192;DHT22;3637;51.494;11.958;2023-03-03T05:24:15;0.80;99.90
7192;DHT22;3637;51.494;11.958;2023-03-03T05:27:17;0.90;99.90
7192;DHT22;3637;51.494;11.958;2023-03-03T05:30:20;1.00;99.90
7192;DHT22;3637;51.494;11.958;2023-03-03T05:33:22;1.00;99.90
7192;DHT22;3637;51.494;11.958;2023-03-03T05:36:24;0.90;99.90
7192;DHT22;3637;51.494;11.958;2023-03-03T05:39:29;1.00;99.90
7192;DHT22;3637;51.494;11.958;2023-03-03T05:42:30;1.00;99.90
7192;DHT22;3637;51.494;11.958;2023-03-03T05:45:34;1.00;99.90
7192;DHT22;3637;51.494;11.958;2023-03-03T05:48:36;1.00;99.90
7192;DHT22;3637;51.494;11.958;2023-03-03T05:51:38;1.10;99.90
7192;DHT22;3637;51.494;11.958;2023-03-03T05:54:40;0.90;99.90
7192;DHT22;3637;51.494;11.958;2023-03-03T05:57:41;1.70;99.90
7192;DHT22;3637;51.494;11.958;2023-03-03T06:00:45;1.10;99.90
7192;DHT22;3637;51.494;11.958;2023-03-03T06:03:47;0.70;99.90
7192;DHT22;3637;51.494;11.958;2023-03-03T06:06:50;1.20;99.90
7192;DHT22;3637;51.494;11.958;2023-03-03T06:09:59;2.00;99.90
7192;DHT22;3637;51.494;11.958;2023-03-03T06:13:03;1.30;99.90
7192;DHT22;3637;51.494;11.958;2023-03-03T06:16:09;2.60;99.90
7192;DHT22;3637;51.494;11.958;2023-03-03T06:19:14;1.40;99.90
7192;DHT22;3637;51.494;11.958;2023-03-03T06:22:18;1.30;99.90
7192;DHT22;3637;51.494;11.958;2023-03-03T06:25:20;1.30;99.90
7192;DHT22;3637;51.494;11.958;2023-03-03T06:28:25;1.10;99.90
7192;DHT22;3637;51.494;11.958;2023-03-03T06:31:29;1.00;99.90
7192;DHT22;3637;51.494;11.958;2023-03-03T06:34:34;1.20;99.90
7192;DHT22;3637;51.494;11.958;2023-03-03T06:37:38;1.30;99.90
7192;DHT22;3637;51.494;11.958;2023-03-03T06:40:43;1.40;99.90
7192;DHT22;3637;51.494;11.958;2023-03-03T06:44:09;1.40;99.90
7192;DHT22;3637;51.494;11.958;2023-03-03T06:47:29;1.50;99.90
7192;DHT22;3637;51.494;11.958;2023-03-03T06:50:31;1.60;99.90
7192;DHT22;3637;51.494;11.958;2023-03-03T06:53:33;1.70;99.90
7192;DHT22;3637;51.494;11.958;2023-03-03T06:56:36;1.60;99.90
7192;DHT22;3637;51.494;11.958;2023-03-03T06:59:39;1.90;99.90
7192;DHT22;3637;51.494;11.958;2023-03-03T07:02:43;1.80;99.90
7192;DHT22;3637;51.494;11.958;2023-03-03T07:05:48;1.80;99.90
7192;DHT22;3637;51.494;11.958;2023-03-03T07:08:53;1.80;99.90
7192;DHT22;3637;51.494;11.958;2023-03-03T07:12:04;1.90;99.90
7192;DHT22;3637;51.494;11.958;2023-03-03T07:15:20;1.60;99.90
7192;DHT22;3637;51.494;11.958;2023-03-03T07:18:33;1.10;99.90
7192;DHT22;3637;51.494;11.958;2023-03-03T07:21:36;1.60;99.90
7192;DHT22;3637;51.494;11.958;2023-03-03T07:24:39;2.20;99.90
7192;DHT22;3637;51.494;11.958;2023-03-03T07:27:41;1.60;99.90
7192;DHT22;3637;51.494;11.958;2023-03-03T07:30:43;1.70;99.90
7192;DHT22;3637;51.494;11.958;2023-03-03T07:33:46;3.10;99.90
7192;DHT22;3637;51.494;11.958;2023-03-03T07:36:49;1.90;99.90
7192;DHT22;3637;51.494;11.958;2023-03-03T07:39:51;2.00;99.90
7192;DHT22;3637;51.494;11.958;2023-03-03T07:42:53;1.90;99.90
7192;DHT22;3637;51.494;11.958;2023-03-03T07:45:57;1.80;99.90
7192;DHT22;3637;51.494;11.958;2023-03-03T07:49:15;1.70;99.90
7192;DHT22;3637;51.494;11.958;2023-03-03T07:52:29;1.70;99.90
7192;DHT22;3637;51.494;11.958;2023-03-03T07:55:35;2.60;99.90
7192;DHT22;3637;51.494;11.958;2023-03-03T07:58:39;1.50;99.90
7192;DHT22;3637;51.494;11.958;2023-03-03T08:01:45;1.90;99.90
7192;DHT22;3637;51.494;11.958;2023-03-03T08:04:50;2.40;99.90
7192;DHT22;3637;51.494;11.958;2023-03-03T08:07:56;2.00;99.90
7192;DHT22;3637;51.494;11.958;2023-03-03T08:10:59;2.00;99.90
7192;DHT22;3637;51.494;11.958;2023-03-03T08:14:08;1.90;99.90
7192;DHT22;3637;51.494;11.958;2023-03-03T08:17:18;2.00;99.90
7192;DHT22;3637;51.494;11.958;2023-03-03T08:20:52;1.90;99.90
7192;DHT22;3637;51.494;11.958;2023-03-03T08:23:55;2.10;99.90
7192;DHT22;3637;51.494;11.958;2023-03-03T08:26:59;2.00;99.90
7192;DHT22;3637;51.494;11.958;2023-03-03T08:30:01;2.60;99.90
7192;DHT22;3637;51.494;11.958;2023-03-03T08:33:03;2.70;99.90
7192;DHT22;3637;51.494;11.958;2023-03-03T08:36:07;3.10;99.90
7192;DHT22;3637;51.494;11.958;2023-03-03T08:39:09;2.00;99.90
7192;DHT22;3637;51.494;11.958;2023-03-03T08:42:11;2.00;99.90
7192;DHT22;3637;51.494;11.958;2023-03-03T08:45:13;2.00;99.90
7192;DHT22;3637;51.494;11.958;2023-03-03T08:48:15;2.30;99.90
7192;DHT22;3637;51.494;11.958;2023-03-03T08:51:19;2.10;99.90
7192;DHT22;3637;51.494;11.958;2023-03-03T08:54:21;2.30;99.90
7192;DHT22;3637;51.494;11.958;2023-03-03T08:57:23;2.40;99.90
7192;DHT22;3637;51.494;11.958;2023-03-03T09:00:24;3.80;99.90
7192;DHT22;3637;51.494;11.958;2023-03-03T09:03:27;2.50;99.90
7192;DHT22;3637;51.494;11.958;2023-03-03T09:06:30;2.30;99.90
7192;DHT22;3637;51.494;11.958;2023-03-03T09:09:32;2.00;99.90
7192;DHT22;3637;51.494;11.958;2023-03-03T09:12:38;2.90;99.90
7192;DHT22;3637;51.494;11.958;2023-03-03T09:15:41;1.80;99.90
7192;DHT22;3637;51.494;11.958;2023-03-03T09:18:43;1.70;99.90
7192;DHT22;3637;51.494;11.958;2023-03-03T09:21:46;1.60;99.90
7192;DHT22;3637;51.494;11.958;2023-03-03T09:24:49;1.70;99.90
7192;DHT22;3637;51.494;11.958;2023-03-03T09:27:53;1.70;99.90
7192;DHT22;3637;51.494;11.958;2023-03-03T09:30:58;2.20;99.90
7192;DHT22;3637;51.494;11.958;2023-03-03T09:34:14;1.90;99.90
7192;DHT22;3637;51.494;11.958;2023-03-03T09:37:21;1.90;99.90
7192;DHT22;3637;51.494;11.958;2023-03-03T09:40:43;1.90;99.90
7192;DHT22;3637;51.494;11.958;2023-03-03T09:43:59;1.80;99.90
7192;DHT22;3637;51.494;11.958;2023-03-03T09:47:27;2.20;99.90
7192;DHT22;3637;51.494;11.958;2023-03-03T09:50:36;2.40;99.90
7192;DHT22;3637;51.494;11.958;2023-03-03T09:53:54;3.10;99.90
7192;DHT22;3637;51.494;11.958;2023-03-03T09:57:06;2.30;99.90
7192;DHT22;3637;51.494;11.958;2023-03-03T10:00:25;2.20;99.90
7192;DHT22;3637;51.494;11.958;2023-03-03T10:03:51;2.10;99.90
7192;DHT22;3637;51.494;11.958;2023-03-03T10:07:07;2.30;99.90
7192;DHT22;3637;51.494;11.958;2023-03-03T10:10:28;2.00;99.90
7192;DHT22;3637;51.494;11.958;2023-03-03T10:13:57;2.20;99.90
7192;DHT22;3637;51.494;11.958;2023-03-03T10:17:13;2.50;99.90
7192;DHT22;3637;51.494;11.958;2023-03-03T10:20:25;2.30;99.90
7192;DHT22;3637;51.494;11.958;2023-03-03T10:23:45;2.50;99.90
7192;DHT22;3637;51.494;11.958;2023-03-03T10:27:08;2.50;99.90
7192;DHT22;3637;51.494;11.958;2023-03-03T10:30:16;2.40;99.90
7192;DHT22;3637;51.494;11.958;2023-03-03T10:33:26;2.90;99.90
7192;DHT22;3637;51.494;11.958;2023-03-03T10:36:37;2.50;99.90
7192;DHT22;3637;51.494;11.958;2023-03-03T10:39:56;2.50;99.90
7192;DHT22;3637;51.494;11.958;2023-03-03T10:43:24;2.60;99.90
7192;DHT22;3637;51.494;11.958;2023-03-03T10:46:48;2.70;99.90
7192;DHT22;3637;51.494;11.958;2023-03-03T10:50:01;2.60;99.90
7192;DHT22;3637;51.494;11.958;2023-03-03T10:53:21;2.70;99.90
7192;DHT22;3637;51.494;11.958;2023-03-03T10:56:32;2.80;99.90
7192;DHT22;3637;51.494;11.958;2023-03-03T11:00:00;2.90;99.90
7192;DHT22;3637;51.494;11.958;2023-03-03T11:06:48;2.60;99.90
7192;DHT22;3637;51.494;11.958;2023-03-03T11:10:02;2.70;99.90
7192;DHT22;3637;51.494;11.958;2023-03-03T11:13:11;3.00;99.90
7192;DHT22;3637;51.494;11.958;2023-03-03T11:16:25;2.00;99.90
7192;DHT22;3637;51.494;11.958;2023-03-03T11:19:41;2.50;99.90
7192;DHT22;3637;51.494;11.958;2023-03-03T11:22:50;2.40;99.90
7192;DHT22;3637;51.494;11.958;2023-03-03T11:26:07;3.10;99.90
7192;DHT22;3637;51.494;11.958;2023-03-03T11:29:24;2.50;99.90
7192;DHT22;3637;51.494;11.958;2023-03-03T11:32:39;2.50;99.90
7192;DHT22;3637;51.494;11.958;2023-03-03T11:35:45;2.70;99.90
7192;DHT22;3637;51.494;11.958;2023-03-03T11:38:53;2.70;99.90
7192;DHT22;3637;51.494;11.958;2023-03-03T11:42:03;2.80;99.90
7192;DHT22;3637;51.494;11.958;2023-03-03T11:45:16;2.80;99.90
7192;DHT22;3637;51.494;11.958;2023-03-03T11:48:26;3.00;99.90
7192;DHT22;3637;51.494;11.958;2023-03-03T11:51:40;3.10;99.90
7192;DHT22;3637;51.494;11.958;2023-03-03T11:54:48;2.90;99.90
7192;DHT22;3637;51.494;11.958;2023-03-03T11:57:55;3.40;99.90
7192;DHT22;3637;51.494;11.958;2023-03-03T12:01:05;2.80;99.90
7192;DHT22;3637;51.494;11.958;2023-03-03T12:04:14;2.60;99.90
7192;DHT22;3637;51.494;11.958;2023-03-03T12:07:27;2.50;99.90
7192;DHT22;3637;51.494;11.958;2023-03-03T12:10:35;2.60;99.90
7192;DHT22;3637;51.494;11.958;2023-03-03T12:13:47;2.70;99.90
7192;DHT22;3637;51.494;11.958;2023-03-03T12:16:55;2.60;99.90
7192;DHT22;3637;51.494;11.958;2023-03-03T12:20:03;2.60;99.90
7192;DHT22;3637;51.494;11.958;2023-03-03T12:23:34;2.70;99.90
7192;DHT22;3637;51.494;11.958;2023-03-03T12:26:43;2.80;99.90
7192;DHT22;3637;51.494;11.958;2023-03-03T12:29:53;2.70;99.90
7192;DHT22;3637;51.494;11.958;2023-03-03T12:33:15;2.80;99.90
7192;DHT22;3637;51.494;11.958;2023-03-03T12:36:38;2.70;99.90
7192;DHT22;3637;51.494;11.958;2023-03-03T12:39:48;2.90;99.90
7192;DHT22;3637;51.494;11.958;2023-03-03T12:43:01;3.00;99.90
7192;DHT22;3637;51.494;11.958;2023-03-03T12:46:13;3.00;99.90
7192;DHT22;3637;51.494;11.958;2023-03-03T12:49:16;3.60;99.90
7192;DHT22;3637;51.494;11.958;2023-03-03T12:52:27;3.10;99.90
7192;DHT22;3637;51.494;11.958;2023-03-03T12:55:36;3.80;99.90
7192;DHT22;3637;51.494;11.958;2023-03-03T12:58:48;3.20;99.90
7192;DHT22;3637;51.494;11.958;2023-03-03T13:02:12;3.40;99.90
7192;DHT22;3637;51.494;11.958;2023-03-03T13:05:23;3.10;99.90
7192;DHT22;3637;51.494;11.958;2023-03-03T13:08:46;3.60;99.90
7192;DHT22;3637;51.494;11.958;2023-03-03T13:12:02;2.90;99.90
7192;DHT22;3637;51.494;11.958;2023-03-03T13:15:13;2.90;99.90
7192;DHT22;3637;51.494;11.958;2023-03-03T13:18:46;3.60;99.90
7192;DHT22;3637;51.494;11.958;2023-03-03T13:21:53;3.40;99.90
7192;DHT22;3637;51.494;11.958;2023-03-03T13:25:01;2.90;99.90
7192;DHT22;3637;51.494;11.958;2023-03-03T13:28:09;4.00;99.90
7192;DHT22;3637;51.494;11.958;2023-03-03T13:31:15;3.10;99.90
7192;DHT22;3637;51.494;11.958;2023-03-03T13:34:27;3.30;99.90
7192;DHT22;3637;51.494;11.958;2023-03-03T13:37:35;3.30;99.90
7192;DHT22;3637;51.494;11.958;2023-03-03T13:40:52;3.30;99.90
7192;DHT22;3637;51.494;11.958;2023-03-03T13:44:08;3.30;99.90
7192;DHT22;3637;51.494;11.958;2023-03-03T13:47:16;2.80;99.90
7192;DHT22;3637;51.494;11.958;2023-03-03T13:50:25;3.20;99.90
7192;DHT22;3637;51.494;11.958;2023-03-03T13:53:37;3.20;99.90
7192;DHT22;3637;51.494;11.958;2023-03-03T13:56:53;3.40;99.90
7192;DHT22;3637;51.494;11.958;2023-03-03T14:00:21;4.10;99.90
7192;DHT22;3637;51.494;11.958;2023-03-03T14:03:50;3.70;99.90
7192;DHT22;3637;51.494;11.958;2023-03-03T14:07:01;3.50;99.90
7192;DHT22;3637;51.494;11.958;2023-03-03T14:10:10;3.60;99.90
7192;DHT22;3637;51.494;11.958;2023-03-03T14:13:22;4.00;99.90
7192;DHT22;3637;51.494;11.958;2023-03-03T14:16:38;3.90;99.90
7192;DHT22;3637;51.494;11.958;2023-03-03T14:19:47;3.60;99.90
7192;DHT22;3637;51.494;11.958;2023-03-03T14:22:54;4.10;99.90
7192;DHT22;3637;51.494;11.958;2023-03-03T14:26:08;4.10;99.90
7192;DHT22;3637;51.494;11.958;2023-03-03T14:33:19;3.60;99.90
7192;DHT22;3637;51.494;11.958;2023-03-03T14:36:28;3.80;99.90
7192;DHT22;3637;51.494;11.958;2023-03-03T14:39:40;3.80;99.90
7192;DHT22;3637;51.494;11.958;2023-03-03T14:42:47;3.50;99.90
7192;DHT22;3637;51.494;11.958;2023-03-03T14:45:50;3.90;99.90
7192;DHT22;3637;51.494;11.958;2023-03-03T14:48:55;4.00;99.90
7192;DHT22;3637;51.494;11.958;2023-03-03T14:52:01;4.60;99.90
7192;DHT22;3637;51.494;11.958;2023-03-03T14:55:29;3.90;99.90
7192;DHT22;3637;51.494;11.958;2023-03-03T14:58:37;3.70;99.90
7192;DHT22;3637;51.494;11.958;2023-03-03T15:01:41;3.80;99.90
7192;DHT22;3637;51.494;11.958;2023-03-03T15:04:45;3.70;99.90
7192;DHT22;3637;51.494;11.958;2023-03-03T15:08:06;3.70;99.90
7192;DHT22;3637;51.494;11.958;2023-03-03T15:11:26;3.80;99.90
7192;DHT22;3637;51.494;11.958;2023-03-03T15:14:31;4.00;99.90
7192;DHT22;3637;51.494;11.958;2023-03-03T15:17:34;4.70;99.90
7192;DHT22;3637;51.494;11.958;2023-03-03T15:20:55;4.00;99.90
7192;DHT22;3637;51.494;11.958;2023-03-03T15:24:09;4.80;99.90
7192;DHT22;3637;51.494;11.958;2023-03-03T15:27:20;5.00;99.90
7192;DHT22;3637;51.494;11.958;2023-03-03T15:30:29;3.80;99.90
7192;DHT22;3637;51.494;11.958;2023-03-03T15:33:39;3.70;99.90
7192;DHT22;3637;51.494;11.958;2023-03-03T15:36:48;4.00;99.90
7192;DHT22;3637;51.494;11.958;2023-03-03T15:40:01;3.80;99.90
7192;DHT22;3637;51.494;11.958;2023-03-03T15:43:10;3.40;99.90
7192;DHT22;3637;51.494;11.958;2023-03-03T15:46:20;3.70;99.90
7192;DHT22;3637;51.494;11.958;2023-03-03T15:49:46;3.70;99.90
7192;DHT22;3637;51.494;11.958;2023-03-03T15:53:05;4.20;99.90
7192;DHT22;3637;51.494;11.958;2023-03-03T15:56:28;3.70;99.90
7192;DHT22;3637;51.494;11.958;2023-03-03T16:03:16;3.50;99.90
7192;DHT22;3637;51.494;11.958;2023-03-03T16:06:29;3.80;99.90
7192;DHT22;3637;51.494;11.958;2023-03-03T16:09:47;4.30;99.90
7192;DHT22;3637;51.494;11.958;2023-03-03T16:12:57;4.40;99.90
7192;DHT22;3637;51.494;11.958;2023-03-03T16:16:09;3.70;99.90
7192;DHT22;3637;51.494;11.958;2023-03-03T16:19:29;3.70;99.90
7192;DHT22;3637;51.494;11.958;2023-03-03T16:22:55;3.40;99.90
7192;DHT22;3637;51.494;11.958;2023-03-03T16:26:09;3.80;99.90
7192;DHT22;3637;51.494;11.958;2023-03-03T16:29:37;3.80;99.90
7192;DHT22;3637;51.494;11.958;2023-03-03T16:32:47;4.00;99.90
7192;DHT22;3637;51.494;11.958;2023-03-03T16:35:59;4.00;99.90
7192;DHT22;3637;51.494;11.958;2023-03-03T16:39:07;3.40;99.90
7192;DHT22;3637;51.494;11.958;2023-03-03T16:42:18;5.30;99.90
7192;DHT22;3637;51.494;11.958;2023-03-03T16:45:26;5.10;99.90
7192;DHT22;3637;51.494;11.958;2023-03-03T16:48:36;4.40;99.90
7192;DHT22;3637;51.494;11.958;2023-03-03T16:51:47;3.90;99.90
7192;DHT22;3637;51.494;11.958;2023-03-03T16:54:52;3.90;99.90
7192;DHT22;3637;51.494;11.958;2023-03-03T16:58:04;3.30;99.90
7192;DHT22;3637;51.494;11.958;2023-03-03T17:01:13;4.40;99.90
7192;DHT22;3637;51.494;11.958;2023-03-03T17:08:43;3.70;99.90
7192;DHT22;3637;51.494;11.958;2023-03-03T17:12:12;4.10;99.90
7192;DHT22;3637;51.494;11.958;2023-03-03T17:16:26;3.60;99.90
7192;DHT22;3637;51.494;11.958;2023-03-03T17:19:48;4.00;99.90
7192;DHT22;3637;51.494;11.958;2023-03-03T17:23:19;4.00;99.90
7192;DHT22;3637;51.494;11.958;2023-03-03T17:26:35;4.10;99.90
7192;DHT22;3637;51.494;11.958;2023-03-03T17:29:57;4.10;99.90
7192;DHT22;3637;51.494;11.958;2023-03-03T17:33:19;4.30;99.90
7192;DHT22;3637;51.494;11.958;2023-03-03T17:37:01;4.00;99.90
7192;DHT22;3637;51.494;11.958;2023-03-03T17:40:38;4.00;99.90
7192;DHT22;3637;51.494;11.958;2023-03-03T17:43:49;3.90;99.90
7192;DHT22;3637;51.494;11.958;2023-03-03T17:46:59;4.20;99.90
7192;DHT22;3637;51.494;11.958;2023-03-03T17:50:20;4.40;99.90
7192;DHT22;3637;51.494;11.958;2023-03-03T17:53:37;3.80;99.90
7192;DHT22;3637;51.494;11.958;2023-03-03T17:56:51;3.70;99.90
7192;DHT22;3637;51.494;11.958;2023-03-03T18:00:19;4.40;99.90
7192;DHT22;3637;51.494;11.958;2023-03-03T18:11:13;3.70;99.90
7192;DHT22;3637;51.494;11.958;2023-03-03T18:14:43;3.60;99.90
7192;DHT22;3637;51.494;11.958;2023-03-03T18:18:02;3.60;99.90
7192;DHT22;3637;51.494;11.958;2023-03-03T18:21:09;3.50;99.90
7192;DHT22;3637;51.494;11.958;2023-03-03T18:24:38;3.40;99.90
7192;DHT22;3637;51.494;11.958;2023-03-03T18:27:42;3.50;99.90
7192;DHT22;3637;51.494;11.958;2023-03-03T18:30:56;3.40;99.90
7192;DHT22;3637;51.494;11.958;2023-03-03T18:34:07;3.30;99.90
7192;DHT22;3637;51.494;11.958;2023-03-03T18:37:32;3.30;99.90
7192;DHT22;3637;51.494;11.958;2023-03-03T18:40:33;3.30;99.90
7192;DHT22;3637;51.494;11.958;2023-03-03T18:43:59;3.20;99.90
7192;DHT22;3637;51.494;11.958;2023-03-03T18:47:03;3.10;99.90
7192;DHT22;3637;51.494;11.958;2023-03-03T18:50:15;3.10;99.90
7192;DHT22;3637;51.494;11.958;2023-03-03T18:53:25;3.10;99.90
7192;DHT22;3637;51.494;11.958;2023-03-03T18:56:42;3.10;99.90
7192;DHT22;3637;51.494;11.958;2023-03-03T19:00:10;3.00;99.90
7192;DHT22;3637;51.494;11.958;2023-03-03T19:03:28;2.90;99.90
7192;DHT22;3637;51.494;11.958;2023-03-03T19:10:48;2.70;99.90
7192;DHT22;3637;51.494;11.958;2023-03-03T19:14:22;2.70;99.90
7192;DHT22;3637;51.494;11.958;2023-03-03T19:17:55;2.80;99.90
7192;DHT22;3637;51.494;11.958;2023-03-03T19:21:06;2.60;99.90
7192;DHT22;3637;51.494;11.958;2023-03-03T19:24:30;2.50;99.90
7192;DHT22;3637;51.494;11.958;2023-03-03T19:27:36;3.00;99.90
7192;DHT22;3637;51.494;11.958;2023-03-03T19:30:50;2.50;99.90
7192;DHT22;3637;51.494;11.958;2023-03-03T19:34:01;2.40;99.90
7192;DHT22;3637;51.494;11.958;2023-03-03T19:37:17;2.50;99.90
7192;DHT22;3637;51.494;11.958;2023-03-03T19:40:27;2.50;99.90
7192;DHT22;3637;51.494;11.958;2023-03-03T19:43:38;2.40;99.90
7192;DHT22;3637;51.494;11.958;2023-03-03T19:46:51;2.30;99.90
7192;DHT22;3637;51.494;11.958;2023-03-03T19:50:11;2.40;99.90
7192;DHT22;3637;51.494;11.958;2023-03-03T19:53:21;2.00;99.90
7192;DHT22;3637;51.494;11.958;2023-03-03T19:56:33;2.60;99.90
7192;DHT22;3637;51.494;11.958;2023-03-03T19:59:46;2.00;99.90
7192;DHT22;3637;51.494;11.958;2023-03-03T20:03:00;1.90;99.90
7192;DHT22;3637;51.494;11.958;2023-03-03T20:06:14;1.90;99.90
7192;DHT22;3637;51.494;11.958;2023-03-03T20:09:25;1.80;99.90
7192;DHT22;3637;51.494;11.958;2023-03-03T20:12:40;1.80;99.90
7192;DHT22;3637;51.494;11.958;2023-03-03T20:15:53;2.30;99.90
7192;DHT22;3637;51.494;11.958;2023-03-03T20:19:13;1.30;99.90
7192;DHT22;3637;51.494;11.958;2023-03-03T20:22:27;1.70;99.90
7192;DHT22;3637;51.494;11.958;2023-03-03T20:25:36;1.70;99.90
7192;DHT22;3637;51.494;11.958;2023-03-03T20:28:55;1.80;99.90
7192;DHT22;3637;51.494;11.958;2023-03-03T20:32:08;1.70;99.90
7192;DHT22;3637;51.494;11.958;2023-03-03T20:35:21;1.70;99.90
7192;DHT22;3637;51.494;11.958;2023-03-03T20:38:32;1.80;99.90
7192;DHT22;3637;51.494;11.958;2023-03-03T20:41:55;1.70;99.90
7192;DHT22;3637;51.494;11.958;2023-03-03T20:45:15;1.80;99.90
7192;DHT22;3637;51.494;11.958;2023-03-03T20:48:31;1.80;99.90
7192;DHT22;3637;51.494;11.958;2023-03-03T20:51:45;1.90;99.90
7192;DHT22;3637;51.494;11.958;2023-03-03T20:55:00;2.50;99.90
7192;DHT22;3637;51.494;11.958;2023-03-03T20:58:12;1.80;99.90
7192;DHT22;3637;51.494;11.958;2023-03-03T21:01:21;1.80;99.90
7192;DHT22;3637;51.494;11.958;2023-03-03T21:04:27;2.30;99.90